Time;durP1;ratioP1;P1;durP2;ratioP2;P2;SDS_P1;SDS_P2;PMS_P1;PMS_P2;Temp;Humidity;BMP_temperature;BMP_pressure;BME280_temperature;BME280_humidity;BME280_pressure;Samples;Min_cycle;Max_cycle;Signal;HPM_P1;HPM_P2
2023/10/06 00:01:48;;;;;;;;;10.50;9.25;;;;;16.57;54.81;102043.34;5109211;27;45495;-73
2023/10/06 00:04:15;;;;;;;;;12.50;11.00;;;;;16.56;55.31;102049.56;5108387;27;46716;-73
2023/10/06 00:06:42;;;;;;;;;14.50;11.75;;;;;16.57;54.96;102053.91;5109953;27;45731;-72
2023/10/06 00:09:09;;;;;;;;;12.75;10.00;;;;;16.56;54.97;102052.22;5104557;27;45268;-72
2023/10/06 00:11:37;;;;;;;;;11.25;10.50;;;;;16.55;55.14;102050.47;5113919;27;45424;-72
2023/10/06 00:14:19;;;;;;;;;16.00;12.50;;;;;16.50;54.98;102047.97;5114093;27;46169;-72
2023/10/06 00:16:45;;;;;;;;;12.00;8.75;;;;;16.48;55.17;102055.06;5109168;27;45266;-72
2023/10/06 00:19:26;;;;;;;;;10.50;8.50;;;;;16.48;55.15;102052.44;5115264;27;45572;-73
2023/10/06 00:22:03;;;;;;;;;16.00;11.00;;;;;16.48;55.54;102058.59;5115026;27;45454;-74
2023/10/06 00:24:29;;;;;;;;;10.50;9.75;;;;;16.45;54.96;102063.09;5101574;27;45491;-72
2023/10/06 00:26:55;;;;;;;;;15.00;9.75;;;;;16.43;55.43;102068.44;5117653;27;45384;-73
2023/10/06 00:29:23;;;;;;;;;17.50;11.25;;;;;16.41;55.45;102064.09;5112760;27;45527;-72
2023/10/06 00:31:48;;;;;;;;;9.00;6.00;;;;;16.38;55.08;102059.78;5110221;27;45407;-72
2023/10/06 00:34:20;;;;;;;;;10.75;6.25;;;;;16.37;55.19;102063.31;5114998;27;45400;-73
2023/10/06 00:36:52;;;;;;;;;10.50;9.00;;;;;16.37;55.54;102065.09;5115845;27;45425;-71
2023/10/06 00:39:25;;;;;;;;;10.50;8.50;;;;;16.33;55.66;102065.19;5099951;27;45379;-73
2023/10/06 00:41:56;;;;;;;;;13.00;9.00;;;;;16.30;55.71;102067.06;5115410;27;45446;-73
2023/10/06 00:44:23;;;;;;;;;14.50;10.75;;;;;16.28;56.00;102067.09;5112862;27;46176;-73
2023/10/06 00:46:48;;;;;;;;;13.25;8.25;;;;;16.27;55.62;102059.22;5099498;27;45825;-72
2023/10/06 00:49:14;;;;;;;;;14.00;11.25;;;;;16.24;55.91;102057.56;5113902;27;45494;-73
2023/10/06 00:51:41;;;;;;;;;11.25;9.75;;;;;16.25;55.77;102056.63;5118527;27;45437;-73
2023/10/06 00:54:07;;;;;;;;;17.75;12.00;;;;;16.22;56.05;102063.78;5112435;27;47307;-73
2023/10/06 00:56:33;;;;;;;;;10.00;8.25;;;;;16.19;55.97;102058.59;5117348;27;45290;-72
2023/10/06 00:59:03;;;;;;;;;16.75;11.50;;;;;16.17;55.85;102058.63;5121630;27;45284;-72
2023/10/06 01:01:29;;;;;;;;;17.50;11.25;;;;;16.13;56.12;102051.72;5097722;27;45571;-72
2023/10/06 01:04:16;;;;;;;;;13.50;9.50;;;;;16.11;56.17;102043.84;5119427;27;45323;-72
2023/10/06 01:06:42;;;;;;;;;11.50;8.50;;;;;16.08;56.34;102035.16;5107438;27;45334;-72
2023/10/06 01:09:15;;;;;;;;;17.50;9.00;;;;;16.06;56.53;102050.16;5119662;27;45515;-73
2023/10/06 01:11:45;;;;;;;;;9.50;7.00;;;;;16.07;56.52;102043.97;5121099;27;45239;-72
2023/10/06 01:14:26;;;;;;;;;17.50;9.50;;;;;16.07;56.64;102050.09;5116746;27;45401;-73
2023/10/06 01:17:07;;;;;;;;;13.00;9.75;;;;;16.06;56.45;102051.03;5116481;27;45749;-73
2023/10/06 01:19:33;;;;;;;;;15.00;9.75;;;;;16.05;56.54;102040.50;5105276;27;45521;-72
2023/10/06 01:22:07;;;;;;;;;12.00;9.25;;;;;16.04;56.50;102039.66;5114012;27;45522;-72
2023/10/06 01:24:33;;;;;;;;;16.00;7.00;;;;;16.00;56.65;102031.84;5111198;27;46126;-73
2023/10/06 01:27:06;;;;;;;;;13.75;10.50;;;;;15.99;56.75;102025.72;5108815;27;45364;-72
2023/10/06 01:29:32;;;;;;;;;9.25;8.50;;;;;15.97;56.66;102031.94;5120853;27;45522;-72
2023/10/06 01:32:03;;;;;;;;;13.00;10.00;;;;;15.96;56.95;102031.06;5120854;27;45498;-73
2023/10/06 01:34:34;;;;;;;;;9.25;8.50;;;;;15.96;56.91;102036.34;5118734;27;46170;-73
2023/10/06 01:37:03;;;;;;;;;10.25;8.25;;;;;15.96;56.86;102038.16;5121333;27;46007;-73
2023/10/06 01:39:31;;;;;;;;;12.75;9.00;;;;;15.96;56.73;102035.50;5116806;27;45286;-72
2023/10/06 01:41:57;;;;;;;;;11.75;9.50;;;;;15.95;57.11;102039.88;5100910;27;45367;-73
2023/10/06 01:44:23;;;;;;;;;9.50;7.75;;;;;15.95;57.16;102037.25;5109985;27;46314;-72
2023/10/06 01:46:54;;;;;;;;;10.50;9.25;;;;;15.96;57.28;102027.59;5113228;27;45432;-72
2023/10/06 01:49:23;;;;;;;;;10.75;9.50;;;;;15.94;57.04;102031.13;5113010;27;45383;-72
2023/10/06 01:51:50;;;;;;;;;14.00;9.75;;;;;15.93;57.21;102029.38;5112937;27;45726;-72
2023/10/06 01:54:16;;;;;;;;;10.75;7.50;;;;;15.92;57.41;102029.44;5100876;27;47397;-72
2023/10/06 01:56:42;;;;;;;;;13.00;9.25;;;;;15.90;57.68;102016.28;5119045;27;45373;-73
2023/10/06 01:59:10;;;;;;;;;8.75;8.25;;;;;15.90;57.15;102020.69;5119377;27;45436;-73
2023/10/06 02:01:38;;;;;;;;;11.00;9.00;;;;;15.87;57.38;102023.44;5100305;27;45544;-72
2023/10/06 02:04:07;;;;;;;;;9.00;8.00;;;;;15.80;57.78;102017.44;5118137;27;46151;-73
2023/10/06 02:06:33;;;;;;;;;11.50;8.50;;;;;15.84;57.64;102020.88;5113292;27;46249;-73
2023/10/06 02:08:59;;;;;;;;;14.75;10.00;;;;;15.83;57.80;102024.41;5111348;27;45289;-73
2023/10/06 02:11:30;;;;;;;;;13.75;8.25;;;;;15.81;57.70;102021.84;5106863;27;45485;-73
2023/10/06 02:13:56;;;;;;;;;10.00;9.50;;;;;15.83;57.74;102027.94;5119169;27;46326;-74
2023/10/06 02:16:26;;;;;;;;;10.00;8.25;;;;;15.84;57.86;102029.63;5106551;27;45322;-74
2023/10/06 02:18:54;;;;;;;;;12.50;10.50;;;;;15.83;57.65;102017.38;5110217;27;45402;-74
2023/10/06 02:21:24;;;;;;;;;16.25;9.50;;;;;15.79;57.97;102014.84;5121117;27;45500;-74
2023/10/06 02:23:52;;;;;;;;;13.50;10.25;;;;;15.78;58.07;102013.13;5111765;27;46125;-75
2023/10/06 02:26:18;;;;;;;;;15.50;9.00;;;;;15.77;58.03;102022.81;5098362;27;45442;-75
2023/10/06 02:28:48;;;;;;;;;15.75;9.25;;;;;15.77;57.72;102016.66;5118358;27;45485;-74
2023/10/06 02:31:19;;;;;;;;;6.25;5.00;;;;;15.72;57.90;102006.19;5113497;27;45236;-75
2023/10/06 02:33:49;;;;;;;;;11.75;9.25;;;;;15.72;58.11;102007.09;5114964;27;45503;-75
2023/10/06 02:36:17;;;;;;;;;13.25;9.25;;;;;15.73;58.20;102014.06;5119000;27;45383;-74
2023/10/06 02:38:47;;;;;;;;;10.25;10.25;;;;;15.70;58.42;102013.31;5112532;27;45492;-74
2023/10/06 02:41:18;;;;;;;;;11.75;10.00;;;;;15.68;58.51;102012.47;5106636;27;45511;-75
2023/10/06 02:43:48;;;;;;;;;13.00;9.25;;;;;15.67;58.25;102009.00;5110571;27;45544;-74
2023/10/06 02:46:15;;;;;;;;;16.50;10.75;;;;;15.67;58.57;102011.63;5119929;27;45425;-74
2023/10/06 02:48:50;;;;;;;;;13.75;10.50;;;;;15.63;58.41;102011.75;5109269;27;45531;-75
2023/10/06 02:51:32;;;;;;;;;14.25;10.75;;;;;15.64;58.07;102013.47;5117106;27;45426;-74
2023/10/06 02:54:20;;;;;;;;;17.50;13.25;;;;;15.63;58.71;102006.47;5117290;27;46382;-74
2023/10/06 02:56:47;;;;;;;;;15.25;10.25;;;;;15.61;58.84;102006.50;5118987;27;45495;-74
2023/10/06 02:59:23;;;;;;;;;15.50;10.00;;;;;15.61;58.63;102003.00;5114171;27;45609;-75
2023/10/06 03:01:52;;;;;;;;;15.25;10.00;;;;;15.61;58.54;102011.78;5106632;27;45327;-74
2023/10/06 03:04:21;;;;;;;;;11.50;10.50;;;;;15.60;58.86;102014.44;5115288;27;48455;-75
2023/10/06 03:06:53;;;;;;;;;13.50;8.75;;;;;15.56;58.83;102008.41;5105061;27;45534;-74
2023/10/06 03:09:20;;;;;;;;;10.25;9.75;;;;;15.54;59.28;102013.72;5117961;27;45328;-73
2023/10/06 03:11:49;;;;;;;;;15.75;9.50;;;;;15.55;58.87;102011.97;5101656;27;45365;-72
2023/10/06 03:14:23;;;;;;;;;13.50;9.50;;;;;15.54;58.94;102019.00;5118082;27;46131;-73
2023/10/06 03:16:51;;;;;;;;;15.50;12.00;;;;;15.51;59.15;102016.47;5118003;27;45961;-72
2023/10/06 03:19:18;;;;;;;;;12.50;9.00;;;;;15.47;58.77;102019.22;5111674;27;45279;-72
2023/10/06 03:21:45;;;;;;;;;12.00;10.00;;;;;15.46;59.21;102017.50;5100699;27;45306;-74
2023/10/06 03:24:19;;;;;;;;;12.75;10.00;;;;;15.41;59.42;102004.41;5113811;27;45469;-73
2023/10/06 03:26:46;;;;;;;;;13.00;11.00;;;;;15.43;59.04;102012.28;5091654;27;45521;-73
2023/10/06 03:29:19;;;;;;;;;12.50;10.00;;;;;15.40;59.09;102007.09;5134909;27;45557;-73
2023/10/06 03:31:44;;;;;;;;;17.00;11.75;;;;;15.39;59.57;102014.16;5104821;27;45943;-74
2023/10/06 03:34:15;;;;;;;;;11.75;10.25;;;;;15.38;59.38;102010.63;5106885;27;74572;-74
2023/10/06 03:36:46;;;;;;;;;12.25;10.25;;;;;15.36;59.73;102011.59;5117631;27;45622;-74
2023/10/06 03:39:12;;;;;;;;;12.00;9.75;;;;;15.34;59.66;102014.25;5114220;27;45418;-74
2023/10/06 03:41:41;;;;;;;;;12.00;11.00;;;;;15.34;59.59;102016.03;5097362;27;45816;-74
2023/10/06 03:44:06;;;;;;;;;17.25;11.00;;;;;15.32;59.46;102013.44;5119996;27;46313;-72
2023/10/06 03:46:38;;;;;;;;;13.00;8.75;;;;;15.32;59.81;102012.59;5109723;27;45402;-73
2023/10/06 03:49:07;;;;;;;;;14.25;10.75;;;;;15.32;60.04;102007.31;5122728;27;45733;-73
2023/10/06 03:51:38;;;;;;;;;10.75;9.75;;;;;15.29;59.96;102015.28;5097172;27;45476;-72
2023/10/06 03:54:04;;;;;;;;;12.50;11.00;;;;;15.26;59.60;102010.09;5124947;27;45417;-72
2023/10/06 03:56:30;;;;;;;;;14.25;11.00;;;;;15.25;59.83;102008.38;5115389;27;45314;-74
2023/10/06 03:58:55;;;;;;;;;11.25;9.25;;;;;15.27;60.17;102011.84;5104410;27;45289;-74
2023/10/06 04:01:26;;;;;;;;;14.25;10.50;;;;;15.25;60.15;102017.16;5113733;27;72221;-74
2023/10/06 04:03:54;;;;;;;;;14.50;11.50;;;;;15.22;60.20;102014.56;5127937;27;46134;-75
2023/10/06 04:06:23;;;;;;;;;10.50;9.00;;;;;15.22;60.25;102013.72;5108480;27;45652;-75
2023/10/06 04:08:48;;;;;;;;;13.75;11.25;;;;;15.22;60.05;102013.72;5121178;27;45475;-75
2023/10/06 04:11:14;;;;;;;;;13.00;11.25;;;;;15.19;60.24;102015.53;5104490;27;45571;-73
2023/10/06 04:13:41;;;;;;;;;14.75;11.75;;;;;15.19;60.05;102022.56;5111988;27;45568;-74
2023/10/06 04:16:06;;;;;;;;;9.00;7.00;;;;;15.15;60.46;102011.22;5116130;27;45486;-73
2023/10/06 04:18:32;;;;;;;;;17.25;11.50;;;;;15.12;60.02;102007.81;5116952;27;66512;-72
2023/10/06 04:20:58;;;;;;;;;14.25;12.00;;;;;15.12;60.44;102008.69;5120830;27;45457;-73
2023/10/06 04:23:23;;;;;;;;;13.00;10.50;;;;;15.10;60.47;102010.50;5118635;27;46603;-73
2023/10/06 04:25:56;;;;;;;;;13.25;10.00;;;;;15.10;60.81;102020.16;5116443;27;45445;-74
2023/10/06 04:28:24;;;;;;;;;15.50;9.25;;;;;15.07;60.57;102018.47;5131946;27;45574;-73
2023/10/06 04:30:49;;;;;;;;;15.50;10.75;;;;;15.05;60.50;102016.78;5121392;27;45360;-74
2023/10/06 04:33:16;;;;;;;;;14.75;10.50;;;;;14.98;60.73;102008.19;5109126;27;45600;-72
2023/10/06 04:35:47;;;;;;;;;13.00;9.50;;;;;15.01;60.44;102013.34;5101987;27;46001;-72
2023/10/06 04:38:13;;;;;;;;;12.25;8.25;;;;;15.01;60.98;102021.25;5110281;27;45365;-72
2023/10/06 04:40:41;;;;;;;;;11.75;10.00;;;;;15.00;61.22;102016.91;5121945;27;45438;-73
2023/10/06 04:43:06;;;;;;;;;13.25;10.25;;;;;14.98;60.85;102013.44;5118494;27;45437;-74
2023/10/06 04:45:31;;;;;;;;;11.50;10.75;;;;;14.98;61.06;102018.72;5110534;27;45248;-74
2023/10/06 04:48:00;;;;;;;;;10.25;7.50;;;;;14.97;60.91;102017.84;5112907;27;63316;-74
2023/10/06 04:50:30;;;;;;;;;12.50;10.00;;;;;14.96;61.21;102018.75;5110448;27;45591;-75
2023/10/06 04:52:58;;;;;;;;;13.75;9.25;;;;;14.93;61.23;102010.91;5121201;27;45483;-74
2023/10/06 04:55:24;;;;;;;;;11.25;9.25;;;;;14.92;61.19;102010.94;5117832;27;70645;-72
2023/10/06 04:57:49;;;;;;;;;14.00;11.25;;;;;14.91;61.07;102012.72;5117393;27;45251;-72
2023/10/06 05:00:19;;;;;;;;;16.50;10.25;;;;;14.92;61.24;102021.50;5119310;27;45314;-73
2023/10/06 05:02:45;;;;;;;;;13.00;10.00;;;;;14.91;61.51;102017.09;5119314;27;45851;-72
2023/10/06 05:05:12;;;;;;;;;14.00;12.00;;;;;14.91;61.55;102011.84;5120934;27;46807;-73
2023/10/06 05:07:38;;;;;;;;;15.00;10.50;;;;;14.90;61.71;102016.25;5121479;27;45475;-73
2023/10/06 05:10:08;;;;;;;;;11.25;9.50;;;;;14.89;61.48;102009.28;5122203;27;45498;-72
2023/10/06 05:12:34;;;;;;;;;15.25;10.00;;;;;14.87;61.90;102007.56;5117700;27;46316;-73
2023/10/06 05:15:00;;;;;;;;;11.50;10.25;;;;;14.90;61.69;102012.75;5121871;27;45337;-73
2023/10/06 05:17:25;;;;;;;;;16.00;11.75;;;;;14.89;61.53;102008.38;5116067;27;45429;-73
2023/10/06 05:19:50;;;;;;;;;15.75;10.75;;;;;14.89;61.62;102011.00;5108937;27;45332;-72
2023/10/06 05:22:16;;;;;;;;;11.25;10.00;;;;;14.86;61.47;102004.06;5100368;27;62383;-73
2023/10/06 05:24:42;;;;;;;;;11.50;8.75;;;;;14.89;61.74;102006.63;5109507;27;45612;-73
2023/10/06 05:27:07;;;;;;;;;15.25;11.25;;;;;14.88;62.14;102004.03;5113311;27;45484;-75
2023/10/06 05:29:36;;;;;;;;;13.00;12.00;;;;;14.88;61.89;102004.88;5110141;27;45313;-74
2023/10/06 05:32:04;;;;;;;;;14.25;10.75;;;;;14.86;62.08;102011.13;5117732;27;46161;-74
2023/10/06 05:34:30;;;;;;;;;17.00;11.75;;;;;14.87;61.99;102010.19;5114335;27;45362;-74
2023/10/06 05:36:58;;;;;;;;;17.75;11.75;;;;;14.85;62.15;102002.31;5117873;27;45300;-73
2023/10/06 05:39:24;;;;;;;;;15.00;10.50;;;;;14.85;61.91;102004.09;5120368;27;45510;-73
2023/10/06 05:41:49;;;;;;;;;15.75;10.75;;;;;14.87;61.95;102011.06;5115955;27;45539;-74
2023/10/06 05:44:14;;;;;;;;;12.50;10.25;;;;;14.84;62.40;102007.63;5108901;27;48188;-72
2023/10/06 05:46:41;;;;;;;;;14.25;12.50;;;;;14.83;62.06;102003.28;5120503;27;45379;-74
2023/10/06 05:49:11;;;;;;;;;21.50;17.00;;;;;14.84;62.40;102007.63;5101125;27;45530;-72
2023/10/06 05:51:38;;;;;;;;;52.50;39.00;;;;;14.84;62.05;102008.50;5091210;27;47062;-73
2023/10/06 05:54:09;;;;;;;;;23.25;15.75;;;;;14.80;62.47;101999.81;5110052;27;45333;-73
2023/10/06 05:56:37;;;;;;;;;19.50;13.00;;;;;14.80;62.30;102004.19;5117634;27;45276;-72
2023/10/06 05:59:02;;;;;;;;;11.00;10.00;;;;;14.82;62.17;102007.69;5111694;27;45214;-72
2023/10/06 06:01:32;;;;;;;;;15.50;13.00;;;;;14.79;62.64;102013.88;5114058;27;45995;-73
2023/10/06 06:04:07;;;;;;;;;20.50;11.00;;;;;14.81;62.34;102012.06;5115963;27;45820;-73
2023/10/06 06:06:36;;;;;;;;;17.75;13.25;;;;;14.79;62.74;102007.75;5131332;27;45424;-74
2023/10/06 06:09:02;;;;;;;;;13.25;11.00;;;;;14.79;62.71;102011.25;5135835;27;45514;-73
2023/10/06 06:11:28;;;;;;;;;13.25;12.00;;;;;14.77;62.50;102005.16;5119977;27;45540;-74
2023/10/06 06:13:57;;;;;;;;;27.50;22.25;;;;;14.81;62.62;102017.34;5121155;27;45270;-73
2023/10/06 06:16:22;;;;;;;;;12.25;12.25;;;;;14.84;62.39;102023.44;5120318;27;45519;-71
2023/10/06 06:18:47;;;;;;;;;16.75;15.00;;;;;14.79;62.58;102021.78;5105591;27;45533;-72
2023/10/06 06:21:16;;;;;;;;;12.50;11.50;;;;;14.80;62.55;102028.81;5111937;27;72753;-73
2023/10/06 06:23:46;;;;;;;;;15.75;12.75;;;;;14.82;62.58;102031.41;5114588;27;45219;-77
2023/10/06 06:26:11;;;;;;;;;19.75;13.75;;;;;14.83;62.55;102032.25;5124605;27;45469;-72
2023/10/06 06:28:37;;;;;;;;;16.50;13.00;;;;;14.85;62.69;102033.94;5114687;27;45377;-73
2023/10/06 06:31:04;;;;;;;;;18.00;12.50;;;;;14.86;62.22;102037.47;5116892;27;46461;-78
2023/10/06 06:33:32;;;;;;;;;15.00;13.25;;;;;14.87;62.63;102042.69;5115332;27;45776;-74
2023/10/06 06:35:58;;;;;;;;;24.00;15.50;;;;;14.89;62.64;102040.91;5117835;27;45587;-72
2023/10/06 06:38:25;;;;;;;;;17.25;13.75;;;;;14.89;62.47;102042.66;5115262;27;45409;-72
2023/10/06 06:40:50;;;;;;;;;17.50;15.50;;;;;14.92;62.59;102045.22;5118251;27;46217;-73
2023/10/06 06:43:19;;;;;;;;;16.50;14.00;;;;;14.94;62.38;102041.66;5120962;27;63499;-73
2023/10/06 06:45:45;;;;;;;;;18.25;13.50;;;;;14.96;62.28;102046.88;5107441;27;45357;-71
2023/10/06 06:48:16;;;;;;;;;16.00;13.75;;;;;14.96;62.12;102042.47;5114232;27;45583;-71
2023/10/06 06:50:43;;;;;;;;;17.00;12.75;;;;;14.98;62.17;102034.53;5093335;27;47909;-73
2023/10/06 06:53:09;;;;;;;;;18.75;16.00;;;;;15.00;62.54;102041.50;5117596;27;45357;-73
2023/10/06 06:55:36;;;;;;;;;21.00;15.00;;;;;15.03;62.56;102045.81;5106575;27;45327;-76
2023/10/06 06:58:06;;;;;;;;;17.50;14.50;;;;;15.03;62.36;102040.53;5110141;27;45520;-76
2023/10/06 07:00:35;;;;;;;;;19.00;13.00;;;;;15.06;62.36;102047.53;5104845;27;46354;-75
2023/10/06 07:03:00;;;;;;;;;19.00;15.25;;;;;15.09;62.41;102036.91;5113928;27;45449;-74
2023/10/06 07:05:26;;;;;;;;;21.75;14.50;;;;;15.11;62.40;102043.00;5120300;27;45414;-74
2023/10/06 07:07:52;;;;;;;;;11.00;10.75;;;;;15.11;62.35;102035.94;5115295;27;45386;-73
2023/10/06 07:10:19;;;;;;;;;18.50;16.75;;;;;15.15;61.88;102040.22;5116308;27;45460;-77
2023/10/06 07:12:46;;;;;;;;;78.75;61.25;;;;;15.16;62.49;102034.06;5113205;27;45564;-75
2023/10/06 07:15:14;;;;;;;;;25.75;21.50;;;;;15.18;61.86;102036.66;5108890;27;45517;-75
2023/10/06 07:17:47;;;;;;;;;20.00;16.00;;;;;15.18;61.97;102036.66;5099146;27;45632;-73
2023/10/06 07:20:17;;;;;;;;;30.00;17.50;;;;;15.21;62.18;102043.63;5107144;27;45698;-74
2023/10/06 07:22:44;;;;;;;;;16.25;15.25;;;;;15.22;61.98;102046.22;5120037;27;45877;-74
2023/10/06 07:25:10;;;;;;;;;24.00;16.75;;;;;15.27;62.01;102054.88;5119471;27;45259;-76
2023/10/06 07:27:40;;;;;;;;;17.25;14.25;;;;;15.32;61.49;102060.91;5128254;27;45381;-75
2023/10/06 07:30:10;;;;;;;;;18.00;15.75;;;;;15.33;61.85;102052.09;5119276;27;46578;-74
2023/10/06 07:32:40;;;;;;;;;24.00;13.50;;;;;15.38;61.71;102062.53;5129246;27;45245;-72
2023/10/06 07:35:06;;;;;;;;;15.25;14.75;;;;;15.41;61.69;102058.97;5113920;27;45413;-74
2023/10/06 07:37:32;;;;;;;;;20.25;15.50;;;;;15.44;61.48;102067.66;5112591;27;46007;-74
2023/10/06 07:39:59;;;;;;;;;23.75;16.25;;;;;15.45;61.20;102063.22;5124234;27;67813;-76
2023/10/06 07:42:26;;;;;;;;;18.75;15.75;;;;;15.46;60.95;102064.97;5124005;27;45349;-70
2023/10/06 07:44:52;;;;;;;;;22.00;18.75;;;;;15.51;60.95;102069.22;5129731;27;66516;-70
2023/10/06 07:47:24;;;;;;;;;17.25;13.50;;;;;15.53;60.89;102070.03;5120774;27;45385;-70
2023/10/06 07:49:49;;;;;;;;;19.00;15.25;;;;;15.59;61.31;102073.44;5112518;27;47274;-69
2023/10/06 07:52:17;;;;;;;;;14.00;9.50;;;;;15.61;60.93;102068.97;5099767;27;45236;-68
2023/10/06 07:54:42;;;;;;;;;17.00;15.50;;;;;15.66;60.68;102072.38;5119059;27;45652;-69
2023/10/06 07:57:10;;;;;;;;;21.00;17.25;;;;;15.65;60.79;102063.59;5125329;27;45527;-71
2023/10/06 07:59:36;;;;;;;;;70.50;50.25;;;;;15.73;60.40;102071.28;5099619;27;47603;-70
2023/10/06 08:02:01;;;;;;;;;63.25;46.00;;;;;15.74;60.71;102066.00;5107504;27;45345;-70
2023/10/06 08:04:27;;;;;;;;;22.50;20.25;;;;;15.83;60.35;102075.44;5101648;27;45266;-69
2023/10/06 08:06:52;;;;;;;;;52.75;38.50;;;;;15.90;60.46;102087.56;5123195;27;45458;-69
2023/10/06 08:09:19;;;;;;;;;27.00;20.25;;;;;15.92;60.52;102082.25;5125691;27;46030;-74
2023/10/06 08:11:45;;;;;;;;;28.25;19.75;;;;;15.99;60.27;102089.09;5104907;27;46012;-71
2023/10/06 08:14:13;;;;;;;;;28.00;20.25;;;;;16.03;60.13;102087.22;5112529;27;45387;-71
2023/10/06 08:16:39;;;;;;;;;21.75;17.00;;;;;16.07;60.18;102092.34;5124043;27;45526;-70
2023/10/06 08:19:05;;;;;;;;;21.50;17.50;;;;;16.11;59.80;102095.78;5095670;27;45608;-70
2023/10/06 08:21:31;;;;;;;;;20.50;15.75;;;;;16.16;59.79;102098.28;5123870;27;45325;-69
2023/10/06 08:23:56;;;;;;;;;24.00;20.25;;;;;16.20;59.67;102095.53;5116542;27;67346;-72
2023/10/06 08:26:21;;;;;;;;;25.25;20.25;;;;;16.23;59.46;102098.06;5117161;27;63625;-69
2023/10/06 08:28:47;;;;;;;;;24.75;19.75;;;;;16.24;59.19;102097.16;5090065;27;73364;-69
2023/10/06 08:31:15;;;;;;;;;21.25;17.25;;;;;16.30;59.37;102094.34;5116824;27;67755;-69
2023/10/06 08:33:41;;;;;;;;;23.00;16.75;;;;;16.33;59.43;102094.25;5112465;27;45531;-69
2023/10/06 08:36:10;;;;;;;;;21.25;17.50;;;;;16.40;59.40;102091.44;5130786;27;45302;-69
2023/10/06 08:38:36;;;;;;;;;23.50;19.75;;;;;16.49;59.17;102096.44;5129930;27;46222;-67
2023/10/06 08:41:02;;;;;;;;;25.75;21.00;;;;;16.59;58.96;102092.63;5120590;27;45353;-68
2023/10/06 08:43:28;;;;;;;;;23.50;19.25;;;;;16.76;58.77;102094.72;5119790;27;45543;-67
2023/10/06 08:45:58;;;;;;;;;25.25;19.50;;;;;16.99;58.66;102096.69;5122014;27;45426;-67
2023/10/06 08:48:30;;;;;;;;;19.00;18.50;;;;;17.10;58.14;102098.13;5107130;27;46164;-64
2023/10/06 08:50:58;;;;;;;;;25.00;19.00;;;;;17.14;58.03;102094.44;5107787;27;45192;-68
2023/10/06 08:53:25;;;;;;;;;22.75;19.00;;;;;17.16;57.83;102096.16;5105801;27;45460;-68
2023/10/06 08:55:50;;;;;;;;;20.00;17.50;;;;;17.17;57.83;102099.66;5116933;27;45551;-68
2023/10/06 08:58:17;;;;;;;;;27.00;17.50;;;;;17.21;57.58;102098.63;5091723;27;48192;-68
2023/10/06 09:00:46;;;;;;;;;30.75;21.25;;;;;17.26;57.46;102099.34;5113139;27;45543;-68
2023/10/06 09:03:14;;;;;;;;;24.00;20.00;;;;;17.30;57.32;102100.97;5103343;27;45569;-68
2023/10/06 09:05:45;;;;;;;;;25.25;18.50;;;;;17.37;56.64;102110.44;5111132;27;45240;-68
2023/10/06 09:08:12;;;;;;;;;21.50;18.00;;;;;17.41;57.15;102104.13;5120109;27;45642;-70
2023/10/06 09:10:43;;;;;;;;;27.00;19.00;;;;;17.49;56.57;102108.28;5112799;27;45343;-67
2023/10/06 09:13:17;;;;;;;;;22.00;19.50;;;;;17.51;56.45;102107.34;5117367;27;45445;-67
2023/10/06 09:15:59;;;;;;;;;22.00;17.25;;;;;17.58;56.72;102108.84;5122138;27;45264;-68
2023/10/06 09:18:28;;;;;;;;;15.00;12.25;;;;;17.63;55.67;102103.38;5116685;27;46123;-68
2023/10/06 09:20:56;;;;;;;;;18.25;11.75;;;;;17.66;56.27;102100.63;5118412;27;45231;-67
2023/10/06 09:23:40;;;;;;;;;11.25;10.50;;;;;17.73;55.36;102103.94;5111760;27;45389;-71
2023/10/06 09:26:07;;;;;;;;;13.50;11.00;;;;;17.75;55.33;102105.59;5116155;27;45421;-77
2023/10/06 09:28:32;;;;;;;;;14.75;12.50;;;;;17.79;55.15;102101.06;5125508;27;47439;-71
2023/10/06 09:31:01;;;;;;;;;13.00;12.50;;;;;17.87;55.57;102111.44;5116517;27;64594;-67
2023/10/06 09:33:28;;;;;;;;;26.75;16.00;;;;;17.89;55.23;102102.50;5116172;27;45412;-71
2023/10/06 09:36:06;;;;;;;;;19.50;15.00;;;;;17.99;55.09;102111.84;5103979;27;45885;-72
2023/10/06 09:38:32;;;;;;;;;19.25;15.75;;;;;18.05;54.38;102107.25;5120629;27;46072;-70
2023/10/06 09:40:58;;;;;;;;;22.00;16.00;;;;;18.10;54.68;102103.50;5112588;27;46139;-70
2023/10/06 09:43:25;;;;;;;;;21.75;15.50;;;;;18.17;54.44;102104.16;5117366;27;45402;-76
2023/10/06 09:45:52;;;;;;;;;22.25;15.75;;;;;18.25;54.93;102103.88;5119374;27;45434;-69
2023/10/06 09:48:24;;;;;;;;;22.00;15.00;;;;;18.36;54.81;102107.84;5119641;27;45419;-69
2023/10/06 09:50:54;;;;;;;;;20.75;15.00;;;;;18.44;54.33;102099.59;5116756;27;45780;-70
2023/10/06 09:53:19;;;;;;;;;14.00;11.25;;;;;18.53;54.25;102101.88;5114070;27;45438;-71
2023/10/06 09:55:48;;;;;;;;;17.25;12.00;;;;;18.62;53.89;102102.47;5120889;27;45393;-71
2023/10/06 09:58:13;;;;;;;;;16.00;13.75;;;;;18.65;53.59;102092.59;5117879;27;46435;-72
2023/10/06 10:00:39;;;;;;;;;16.00;12.00;;;;;18.75;53.34;102095.75;5113254;27;71458;-71
2023/10/06 10:03:06;;;;;;;;;21.50;11.50;;;;;18.83;53.25;102095.50;5110780;27;45445;-71
2023/10/06 10:05:32;;;;;;;;;12.25;8.75;;;;;18.88;52.56;102097.03;5119634;27;45508;-73
2023/10/06 10:07:58;;;;;;;;;15.50;14.25;;;;;18.95;52.40;102105.59;5118134;27;45431;-73
2023/10/06 10:10:24;;;;;;;;;13.00;9.50;;;;;19.02;52.44;102092.97;5119568;27;62864;-74
2023/10/06 10:13:19;;;;;;;;;5.00;5.00;;;;;19.08;52.32;102092.69;5122933;27;64428;-78
2023/10/06 10:16:09;;;;;;;;;15.50;10.00;;;;;19.15;51.93;102087.06;5121608;27;45525;-68
2023/10/06 10:18:47;;;;;;;;;16.50;10.75;;;;;19.26;51.26;102094.56;5117408;27;46572;-71
2023/10/06 10:21:13;;;;;;;;;10.25;7.00;;;;;19.27;50.97;102093.66;5111840;27;46029;-67
2023/10/06 10:23:41;;;;;;;;;11.00;9.25;;;;;19.34;50.85;102089.81;5119226;27;45215;-73
2023/10/06 10:26:26;;;;;;;;;8.75;7.00;;;;;19.44;50.21;102092.06;5110391;27;45637;-73
2023/10/06 10:29:10;;;;;;;;;24.75;14.25;;;;;19.47;47.42;102094.59;5118490;27;45966;-75
2023/10/06 10:31:39;;;;;;;;;16.50;8.25;;;;;19.47;50.15;102090.16;5118048;27;45851;-74
2023/10/06 10:34:07;;;;;;;;;15.25;7.50;;;;;19.53;49.96;102083.75;5111013;27;45420;-78
2023/10/06 10:36:32;;;;;;;;;17.75;9.75;;;;;19.62;50.59;102082.44;5114474;27;45471;-73
2023/10/06 10:39:14;;;;;;;;;9.00;6.25;;;;;19.70;50.21;102080.34;5119841;27;46885;-73
2023/10/06 10:41:40;;;;;;;;;11.25;7.00;;;;;19.72;49.46;102079.34;5116404;27;45344;-73
2023/10/06 10:44:07;;;;;;;;;11.25;10.25;;;;;19.76;49.36;102066.84;5113435;27;45543;-72
2023/10/06 10:46:44;;;;;;;;;11.00;6.75;;;;;19.82;48.87;102073.66;5110725;27;45552;-73
2023/10/06 10:49:13;;;;;;;;;12.75;7.25;;;;;19.88;49.42;102065.41;5114686;27;46263;-74
2023/10/06 10:52:02;;;;;;;;;10.50;6.00;;;;;19.94;47.70;102058.94;5097359;27;45473;-75
2023/10/06 10:54:30;;;;;;;;;10.25;9.00;;;;;19.96;48.32;102054.44;5103268;27;45340;-70
2023/10/06 10:57:02;;;;;;;;;10.75;6.00;;;;;20.00;48.33;102046.25;5112940;27;45326;-70
2023/10/06 11:00:11;;;;;;;;;7.75;6.00;;;;;20.14;48.50;102055.38;5107586;27;45641;-71
2023/10/06 11:02:45;;;;;;;;;13.75;10.00;;;;;20.22;48.80;102058.53;5110582;27;45578;-69
2023/10/06 11:05:11;;;;;;;;;13.50;10.00;;;;;20.28;48.15;102048.47;5118510;27;45476;-71
2023/10/06 11:07:37;;;;;;;;;9.75;8.50;;;;;20.34;48.49;102052.66;5121009;27;45457;-70
2023/10/06 11:10:03;;;;;;;;;12.50;8.75;;;;;20.39;47.99;102044.47;5108788;27;45502;-72
2023/10/06 11:12:30;;;;;;;;;7.50;7.25;;;;;20.41;47.84;102046.09;5106021;27;45520;-69
2023/10/06 11:15:13;;;;;;;;;9.00;6.25;;;;;20.46;48.10;102054.72;5104480;27;45551;-72
2023/10/06 11:17:41;;;;;;;;;20.50;13.25;;;;;20.48;47.64;102046.69;5103692;27;45353;-73
2023/10/06 11:20:13;;;;;;;;;27.50;21.00;;;;;20.48;48.27;102049.34;5103102;27;46173;-73